createdAt,value
2023-01-03T00:02:19.959Z,9.18
2023-01-03T00:04:50.541Z,9.26
2023-01-03T00:07:22.730Z,9.26
2023-01-03T00:09:53.214Z,9.37
2023-01-03T00:12:31.191Z,9.36
2023-01-03T00:15:00.896Z,9.38
2023-01-03T00:17:32.532Z,9.50
2023-01-03T00:20:03.115Z,9.41
2023-01-03T00:22:34.835Z,9.57
2023-01-03T00:25:07.617Z,9.48
2023-01-03T00:27:39.488Z,9.58
2023-01-03T00:30:11.666Z,9.50
2023-01-03T00:32:42.315Z,9.53
2023-01-03T00:35:12.822Z,9.50
2023-01-03T00:37:44.859Z,9.52
2023-01-03T00:40:15.636Z,9.57
2023-01-03T00:43:04.131Z,9.62
2023-01-03T00:45:36.492Z,9.56
2023-01-03T00:48:07.356Z,9.54
2023-01-03T00:50:43.129Z,9.47
2023-01-03T00:53:14.600Z,9.54
2023-01-03T00:55:45.107Z,9.52
2023-01-03T00:58:15.592Z,9.48
2023-01-03T01:00:49.714Z,9.23
2023-01-03T01:03:20.263Z,9.20
2023-01-03T01:05:50.943Z,9.08
2023-01-03T01:08:22.673Z,8.88
2023-01-03T01:11:04.407Z,8.92
2023-01-03T01:13:36.936Z,9.00
2023-01-03T01:16:10.357Z,8.81
2023-01-03T01:18:42.840Z,8.81
2023-01-03T01:21:18.717Z,8.78
2023-01-03T01:23:49.819Z,8.77
2023-01-03T01:26:22.456Z,8.74
2023-01-03T01:28:54.317Z,8.73
2023-01-03T01:31:26.961Z,8.66
2023-01-03T01:33:58.391Z,8.59
2023-01-03T01:36:31.718Z,8.60
2023-01-03T01:39:11.923Z,8.58
2023-01-03T01:42:02.124Z,8.69
2023-01-03T01:44:47.708Z,8.54
2023-01-03T01:47:26.777Z,8.60
2023-01-03T01:50:15.096Z,8.60
2023-01-03T01:52:54.819Z,8.56
2023-01-03T01:55:28.657Z,8.52
2023-01-03T01:58:01.683Z,8.46
2023-01-03T02:00:34.337Z,8.46
2023-01-03T02:03:05.562Z,8.46
2023-01-03T02:05:39.009Z,8.33
2023-01-03T02:08:09.644Z,8.32
2023-01-03T02:10:51.795Z,8.20
2023-01-03T02:13:25.255Z,8.15
2023-01-03T02:16:15.699Z,8.23
2023-01-03T02:19:10.946Z,8.09
2023-01-03T02:22:18.432Z,7.94
2023-01-03T02:25:02.268Z,7.79
2023-01-03T02:27:58.520Z,7.68
2023-01-03T02:30:53.469Z,7.73
2023-01-03T02:33:32.796Z,7.60
2023-01-03T02:36:12.269Z,7.55
2023-01-03T02:38:51.582Z,7.48
2023-01-03T02:41:28.016Z,7.35
2023-01-03T02:44:10.525Z,7.42
2023-01-03T02:46:47.186Z,7.28
2023-01-03T02:49:26.852Z,7.18
2023-01-03T02:52:00.551Z,7.34
2023-01-03T02:54:34.034Z,7.15
2023-01-03T02:57:17.663Z,7.12
2023-01-03T02:59:54.187Z,7.00
2023-01-03T03:02:28.843Z,7.02
2023-01-03T03:05:02.886Z,7.03
2023-01-03T03:07:37.479Z,7.12
2023-01-03T03:10:30.817Z,7.12
2023-01-03T03:13:16.313Z,6.98
2023-01-03T03:16:01.900Z,7.00
2023-01-03T03:18:35.566Z,6.96
2023-01-03T03:21:27.761Z,6.88
2023-01-03T03:24:19.256Z,6.84
2023-01-03T03:26:51.948Z,6.85
2023-01-03T03:29:25.504Z,6.88
2023-01-03T03:31:57.407Z,6.69
2023-01-03T03:34:30.919Z,6.60
2023-01-03T03:37:19.927Z,6.66
2023-01-03T03:40:08.792Z,6.61
2023-01-03T03:43:11.992Z,6.53
2023-01-03T03:45:53.055Z,6.51
2023-01-03T03:49:04.034Z,6.42
2023-01-03T03:51:37.427Z,6.41
2023-01-03T03:54:10.927Z,6.41
2023-01-03T03:56:45.475Z,6.34
2023-01-03T03:59:20.840Z,6.36
2023-01-03T04:01:52.326Z,6.30
2023-01-03T04:04:27.633Z,6.26
2023-01-03T04:06:58.229Z,6.36
2023-01-03T04:09:29.064Z,6.36
2023-01-03T04:11:59.861Z,6.24
2023-01-03T04:14:30.553Z,6.30
2023-01-03T04:17:02.476Z,6.42
2023-01-03T04:19:32.859Z,6.17
2023-01-03T04:22:03.316Z,6.34
2023-01-03T04:24:33.830Z,6.27
2023-01-03T04:27:05.777Z,6.40
2023-01-03T04:29:39.455Z,6.12
2023-01-03T04:32:11.152Z,6.24
2023-01-03T04:34:41.720Z,6.15
2023-01-03T04:37:12.628Z,6.20
2023-01-03T04:39:43.583Z,6.12
2023-01-03T04:42:32.139Z,6.12
2023-01-03T04:45:03.180Z,6.02
2023-01-03T04:47:33.929Z,6.12
2023-01-03T04:50:04.990Z,6.05
2023-01-03T04:52:35.544Z,6.12
2023-01-03T04:55:08.106Z,5.93
2023-01-03T04:57:38.670Z,6.12
2023-01-03T05:00:10.255Z,6.02
2023-01-03T05:02:40.999Z,6.06
2023-01-03T05:05:12.135Z,6.02
2023-01-03T05:07:44.919Z,6.10
2023-01-03T05:10:15.740Z,6.04
2023-01-03T05:12:47.914Z,5.96
2023-01-03T05:15:19.915Z,5.89
2023-01-03T05:17:50.813Z,6.06
2023-01-03T05:20:39.679Z,5.94
2023-01-03T05:23:33.336Z,6.00
2023-01-03T05:26:19.868Z,6.03
2023-01-03T05:28:53.480Z,5.91
2023-01-03T05:31:24.077Z,5.92
2023-01-03T05:33:56.976Z,5.86
2023-01-03T05:36:27.881Z,5.90
2023-01-03T05:38:59.866Z,5.88
2023-01-03T05:41:48.208Z,5.82
2023-01-03T05:44:19.106Z,5.66
2023-01-03T05:46:50.191Z,5.72
2023-01-03T05:49:20.698Z,5.74
2023-01-03T05:51:51.179Z,5.66
2023-01-03T05:54:22.371Z,5.69
2023-01-03T05:56:52.948Z,5.60
2023-01-03T05:59:23.994Z,5.51
2023-01-03T06:01:54.482Z,5.57
2023-01-03T06:04:25.324Z,5.61
2023-01-03T06:06:55.901Z,5.58
2023-01-03T06:09:26.339Z,5.48
2023-01-03T06:11:56.934Z,5.43
2023-01-03T06:14:27.939Z,5.44
2023-01-03T06:17:16.468Z,5.37
2023-01-03T06:19:48.882Z,5.39
2023-01-03T06:22:19.377Z,5.36
2023-01-03T06:24:51.629Z,5.48
2023-01-03T06:27:24.709Z,5.38
2023-01-03T06:29:56.051Z,5.40
2023-01-03T06:32:26.649Z,5.44
2023-01-03T06:34:57.157Z,5.50
2023-01-03T06:37:28.876Z,5.43
2023-01-03T06:39:59.422Z,5.32
2023-01-03T06:42:47.501Z,5.44
2023-01-03T06:45:37.232Z,5.33
2023-01-03T06:48:27.765Z,5.30
2023-01-03T06:51:18.750Z,5.20
2023-01-03T06:53:50.343Z,5.24
2023-01-03T06:56:23.025Z,5.21
2023-01-03T06:58:53.670Z,5.30
2023-01-03T07:01:25.019Z,5.30
2023-01-03T07:03:57.303Z,5.20
2023-01-03T07:06:31.049Z,5.22
2023-01-03T07:09:01.964Z,5.20
2023-01-03T07:11:34.275Z,5.14
2023-01-03T07:14:08.601Z,5.22
2023-01-03T07:16:43.591Z,5.20
2023-01-03T07:19:19.629Z,5.16
2023-01-03T07:21:50.043Z,5.15
2023-01-03T07:24:21.111Z,5.06
2023-01-03T07:26:54.876Z,5.10
2023-01-03T07:29:26.919Z,5.16
2023-01-03T07:31:59.938Z,5.10
2023-01-03T07:34:30.975Z,5.31
2023-01-03T07:37:02.866Z,5.14
2023-01-03T07:39:35.311Z,5.12
2023-01-03T07:42:24.161Z,5.01
2023-01-03T07:44:56.295Z,5.24
2023-01-03T07:47:28.305Z,5.12
2023-01-03T07:49:58.802Z,5.13
2023-01-03T07:52:29.249Z,5.16
2023-01-03T07:54:59.859Z,5.14
2023-01-03T07:57:30.534Z,5.16
2023-01-03T08:00:03.365Z,5.10
2023-01-03T08:02:33.973Z,5.12
2023-01-03T08:05:04.763Z,5.16
2023-01-03T08:07:36.552Z,5.24
2023-01-03T08:10:27.606Z,5.13
2023-01-03T08:13:16.095Z,5.24
2023-01-03T08:15:49.031Z,5.26
2023-01-03T08:18:22.901Z,5.31
2023-01-03T08:20:57.253Z,5.33
2023-01-03T08:23:29.527Z,5.26
2023-01-03T08:26:07.719Z,5.33
2023-01-03T08:28:39.527Z,5.26
2023-01-03T08:31:15.923Z,5.37
2023-01-03T08:33:49.359Z,5.42
2023-01-03T08:36:21.267Z,5.50
2023-01-03T08:38:54.750Z,5.42
2023-01-03T08:41:28.570Z,5.56
2023-01-03T08:44:01.731Z,5.71
2023-01-03T08:46:34.195Z,5.69
2023-01-03T08:49:04.797Z,5.55
2023-01-03T08:51:35.333Z,5.61
2023-01-03T08:54:08.576Z,5.60
2023-01-03T08:56:40.290Z,5.77
2023-01-03T08:59:12.443Z,5.68
2023-01-03T09:01:43.984Z,5.82
2023-01-03T09:04:14.662Z,5.80
2023-01-03T09:06:45.237Z,5.82
2023-01-03T09:09:16.595Z,5.86
2023-01-03T09:11:46.953Z,5.76
2023-01-03T09:14:18.427Z,5.82
2023-01-03T09:16:49.740Z,5.95
2023-01-03T09:19:21.839Z,6.00
2023-01-03T09:21:52.276Z,6.00
2023-01-03T09:24:22.732Z,6.02
2023-01-03T09:26:55.047Z,6.09
2023-01-03T09:29:27.075Z,6.00
2023-01-03T09:31:59.898Z,6.17
2023-01-03T09:34:31.118Z,6.16
2023-01-03T09:37:04.337Z,6.20
2023-01-03T09:39:36.220Z,6.26
2023-01-03T09:42:25.832Z,6.20
2023-01-03T09:44:58.367Z,6.30
2023-01-03T09:47:30.475Z,6.20
2023-01-03T09:52:52.518Z,6.28
2023-01-03T09:55:46.798Z,6.39
2023-01-03T09:58:35.526Z,6.52
2023-01-03T10:01:43.511Z,6.39
2023-01-03T10:04:19.973Z,6.41
2023-01-03T10:07:17.172Z,6.37
2023-01-03T10:09:58.245Z,6.40
2023-01-03T10:12:40.636Z,6.47
2023-01-03T10:15:41.475Z,6.59
2023-01-03T10:18:30.563Z,6.70
2023-01-03T10:21:25.236Z,6.79
2023-01-03T10:23:56.917Z,7.04
2023-01-03T10:26:32.992Z,7.26
2023-01-03T10:29:02.660Z,7.30
2023-01-03T10:31:58.050Z,7.08
2023-01-03T10:34:30.113Z,7.12
2023-01-03T10:37:00.945Z,7.04
2023-01-03T10:39:33.003Z,7.10
2023-01-03T10:42:07.123Z,7.06
2023-01-03T10:44:39.040Z,7.06
2023-01-03T10:47:13.024Z,6.95
2023-01-03T10:49:50.844Z,6.96
2023-01-03T10:52:24.015Z,6.94
2023-01-03T10:54:57.050Z,6.91
2023-01-03T10:57:47.397Z,7.23
2023-01-03T11:00:29.758Z,7.11
2023-01-03T11:03:21.682Z,7.09
2023-01-03T11:06:07.359Z,7.11
2023-01-03T11:08:49.693Z,7.03
2023-01-03T11:11:37.023Z,7.00
2023-01-03T11:14:28.237Z,6.98
2023-01-03T11:17:08.125Z,7.08
2023-01-03T11:19:39.103Z,7.06
2023-01-03T11:22:33.841Z,7.13
2023-01-03T11:25:04.584Z,7.27
2023-01-03T11:27:40.983Z,7.16
2023-01-03T11:30:24.472Z,7.14
2023-01-03T11:33:11.688Z,7.08
2023-01-03T11:35:59.161Z,7.12
2023-01-03T11:38:39.929Z,7.12
2023-01-03T11:41:25.857Z,7.10
2023-01-03T11:44:22.438Z,7.20
2023-01-03T11:47:23.362Z,6.94
2023-01-03T11:50:00.218Z,7.00
2023-01-03T11:53:02.101Z,7.12
2023-01-03T11:55:37.750Z,7.17
2023-01-03T11:58:34.578Z,7.13
2023-01-03T12:01:39.651Z,7.54
2023-01-03T12:04:39.344Z,7.33
2023-01-03T12:10:09.790Z,7.52
2023-01-03T12:12:58.866Z,7.36
2023-01-03T12:15:45.061Z,7.21
2023-01-03T12:18:22.536Z,7.00
2023-01-03T12:20:56.868Z,7.06
2023-01-03T12:23:40.462Z,6.96
2023-01-03T12:26:18.398Z,6.83
2023-01-03T12:29:02.992Z,6.95
2023-01-03T12:31:43.530Z,6.88
2023-01-03T12:34:19.730Z,6.78
2023-01-03T12:36:53.325Z,6.84
2023-01-03T12:39:58.216Z,6.80
2023-01-03T12:42:40.904Z,6.94
2023-01-03T12:45:38.948Z,6.83
2023-01-03T12:48:15.696Z,6.74
2023-01-03T12:50:54.784Z,6.76
2023-01-03T12:53:35.040Z,6.78
2023-01-03T12:56:40.668Z,6.68
2023-01-03T12:59:24.730Z,6.67
2023-01-03T13:02:04.703Z,6.72
2023-01-03T13:04:41.001Z,6.71
2023-01-03T13:07:23.587Z,6.68
2023-01-03T13:10:05.852Z,6.82
2023-01-03T13:12:41.490Z,6.93
2023-01-03T13:15:21.448Z,6.90
2023-01-03T13:17:54.473Z,7.04
2023-01-03T13:20:37.575Z,7.06
2023-01-03T13:23:32.583Z,7.20
2023-01-03T13:26:10.862Z,7.20
2023-01-03T13:28:41.814Z,6.82
2023-01-03T13:31:23.005Z,6.72
2023-01-03T13:33:58.705Z,6.86
2023-01-03T13:36:33.573Z,6.89
2023-01-03T13:39:07.680Z,6.76
2023-01-03T13:41:40.691Z,6.74
2023-01-03T13:44:20.664Z,6.58
2023-01-03T13:46:52.900Z,6.52
2023-01-03T13:49:30.367Z,6.46
2023-01-03T13:52:04.012Z,6.40
2023-01-03T13:54:38.976Z,6.51
2023-01-03T13:57:32.135Z,6.42
2023-01-03T14:00:05.787Z,6.27
2023-01-03T14:03:13.085Z,6.30
2023-01-03T14:06:15.945Z,6.20
2023-01-03T14:08:58.501Z,6.24
2023-01-03T14:11:53.911Z,6.28
2023-01-03T14:14:28.604Z,6.32
2023-01-03T14:17:01.197Z,6.23
2023-01-03T14:19:35.486Z,6.34
2023-01-03T14:22:28.130Z,6.30
2023-01-03T14:24:54.931Z,6.40
2023-01-03T14:27:34.365Z,6.18
2023-01-03T14:30:27.363Z,6.30
2023-01-03T14:32:59.476Z,6.30
2023-01-03T14:35:44.255Z,6.26
2023-01-03T14:38:26.055Z,6.00
2023-01-03T14:40:58.929Z,6.11
2023-01-03T14:43:31.769Z,5.96
2023-01-03T14:46:08.580Z,5.83
2023-01-03T14:48:43.065Z,5.89
2023-01-03T14:51:17.948Z,5.94
2023-01-03T14:53:48.708Z,5.82
2023-01-03T14:56:23.715Z,5.75
2023-01-03T14:58:55.047Z,5.82
2023-01-03T15:01:29.103Z,5.76
2023-01-03T15:04:00.490Z,5.62
2023-01-03T15:06:33.140Z,5.49
2023-01-03T15:09:06.795Z,5.67
2023-01-03T15:11:41.884Z,5.54
2023-01-03T15:14:15.023Z,5.46
2023-01-03T15:16:47.024Z,5.66
2023-01-03T15:19:25.001Z,5.55
2023-01-03T15:22:12.769Z,5.48
2023-01-03T15:24:46.529Z,5.70
2023-01-03T15:27:34.818Z,5.49
2023-01-03T15:30:15.284Z,5.52
2023-01-03T15:33:01.114Z,5.71
2023-01-03T15:35:44.421Z,5.58
2023-01-03T15:38:33.362Z,5.54
2023-01-03T15:41:22.870Z,5.47
2023-01-03T15:43:54.847Z,5.41
2023-01-03T15:46:27.828Z,5.44
2023-01-03T15:48:59.712Z,5.46
2023-01-03T15:51:30.390Z,5.42
2023-01-03T15:54:01.008Z,5.29
2023-01-03T15:56:38.358Z,5.28
2023-01-03T15:59:12.070Z,5.05
2023-01-03T16:01:45.196Z,5.00
2023-01-03T16:04:16.292Z,4.98
2023-01-03T16:06:47.438Z,5.08
2023-01-03T16:09:18.046Z,5.12
2023-01-03T16:11:54.107Z,4.98
2023-01-03T16:14:27.104Z,4.98
2023-01-03T16:16:58.522Z,4.99
2023-01-03T16:19:30.086Z,4.88
2023-01-03T16:24:36.284Z,4.72
2023-01-03T16:27:23.767Z,4.73
2023-01-03T16:29:55.154Z,4.66
2023-01-03T16:32:28.896Z,4.74
2023-01-03T16:35:05.106Z,4.80
2023-01-03T16:37:35.920Z,5.07
2023-01-03T16:40:17.640Z,5.00
2023-01-03T16:42:49.895Z,5.13
2023-01-03T16:45:21.692Z,5.04
2023-01-03T16:48:03.907Z,4.96
2023-01-03T16:50:37.858Z,4.96
2023-01-03T16:53:13.311Z,4.96
2023-01-03T16:55:44.260Z,4.80
2023-01-03T16:58:18.312Z,4.92
2023-01-03T17:00:48.931Z,4.90
2023-01-03T17:03:23.854Z,4.92
2023-01-03T17:05:56.604Z,4.74
2023-01-03T17:08:41.982Z,4.73
2023-01-03T17:11:14.270Z,4.76
2023-01-03T17:13:48.718Z,4.72
2023-01-03T17:16:28.518Z,4.84
2023-01-03T17:19:02.695Z,4.94
2023-01-03T17:21:39.121Z,4.80
2023-01-03T17:24:16.389Z,4.87
2023-01-03T17:26:55.215Z,4.90
2023-01-03T17:29:27.586Z,4.88
2023-01-03T17:31:58.953Z,4.87
2023-01-03T17:34:33.869Z,4.97
2023-01-03T17:37:04.459Z,4.82
2023-01-03T17:39:35.077Z,4.80
2023-01-03T17:42:16.199Z,4.72
2023-01-03T17:45:08.144Z,4.70
2023-01-03T17:48:02.039Z,4.74
2023-01-03T17:50:33.648Z,4.80
2023-01-03T17:53:04.363Z,4.80
2023-01-03T17:55:35.585Z,4.88
2023-01-03T17:58:06.437Z,4.70
2023-01-03T18:00:39.087Z,4.66
2023-01-03T18:03:11.525Z,4.82
2023-01-03T18:05:46.088Z,4.80
2023-01-03T18:08:20.712Z,4.74
2023-01-03T18:10:56.237Z,4.80
2023-01-03T18:13:36.408Z,4.78
2023-01-03T18:16:07.553Z,4.70
2023-01-03T18:18:43.728Z,4.70
2023-01-03T18:21:21.567Z,4.68
2023-01-03T18:24:00.846Z,4.56
2023-01-03T18:26:37.402Z,4.54
2023-01-03T18:29:08.701Z,4.59
2023-01-03T18:31:40.760Z,4.50
2023-01-03T18:34:16.236Z,4.47
2023-01-03T18:36:49.941Z,4.48
2023-01-03T18:39:29.197Z,4.52
2023-01-03T18:42:01.575Z,4.50
2023-01-03T18:44:33.195Z,4.47
2023-01-03T18:47:03.756Z,4.62
2023-01-03T18:49:37.052Z,4.54
2023-01-03T18:52:07.764Z,4.56
2023-01-03T18:54:40.955Z,4.54
2023-01-03T18:57:14.098Z,4.56
2023-01-03T18:59:48.517Z,4.58
2023-01-03T19:02:21.363Z,4.56
2023-01-03T19:04:52.314Z,4.58
2023-01-03T19:07:37.415Z,4.48
2023-01-03T19:10:13.915Z,4.68
2023-01-03T19:12:45.509Z,4.84
2023-01-03T19:15:22.001Z,4.75
2023-01-03T19:17:54.801Z,4.71
2023-01-03T19:20:27.166Z,4.70
2023-01-03T19:22:58.237Z,4.72
2023-01-03T19:25:31.455Z,4.67
2023-01-03T19:28:04.568Z,4.82
2023-01-03T19:30:42.643Z,4.86
2023-01-03T19:33:16.887Z,4.99
2023-01-03T19:35:47.676Z,4.99
2023-01-03T19:38:19.702Z,4.94
2023-01-03T19:40:51.654Z,4.89
2023-01-03T19:43:25.768Z,5.10
2023-01-03T19:45:59.665Z,5.00
2023-01-03T19:48:31.702Z,5.24
2023-01-03T19:51:03.629Z,5.31
2023-01-03T19:53:34.642Z,5.26
2023-01-03T19:56:07.391Z,5.28
2023-01-03T19:58:41.204Z,5.09
2023-01-03T20:01:18.929Z,5.04
2023-01-03T20:03:56.193Z,4.96
2023-01-03T20:06:26.510Z,4.94
2023-01-03T20:08:58.972Z,4.94
2023-01-03T20:11:33.419Z,4.86
2023-01-03T20:14:07.191Z,4.82
2023-01-03T20:16:38.323Z,4.78
2023-01-03T20:19:18.139Z,4.73
2023-01-03T20:21:50.579Z,4.75
2023-01-03T20:24:24.444Z,4.84
2023-01-03T20:26:56.955Z,4.99
2023-01-03T20:29:28.953Z,5.00
2023-01-03T20:32:04.206Z,5.00
2023-01-03T20:34:35.377Z,5.16
2023-01-03T20:37:09.810Z,5.01
2023-01-03T20:39:40.318Z,5.09
2023-01-03T20:42:22.833Z,5.08
2023-01-03T20:44:53.271Z,5.18
2023-01-03T20:47:26.831Z,5.15
2023-01-03T20:49:57.335Z,5.14
2023-01-03T20:52:32.093Z,4.98
2023-01-03T20:55:02.642Z,4.98
2023-01-03T20:57:35.693Z,4.78
2023-01-03T21:00:08.131Z,4.70
2023-01-03T21:02:39.991Z,4.66
2023-01-03T21:05:11.728Z,4.71
2023-01-03T21:08:02.226Z,4.72
2023-01-03T21:10:35.691Z,4.85
2023-01-03T21:13:10.067Z,4.94
2023-01-03T21:15:40.586Z,4.94
2023-01-03T21:18:14.708Z,4.94
2023-01-03T21:20:46.669Z,4.97
2023-01-03T21:23:20.638Z,4.97
2023-01-03T21:25:56.438Z,4.96
2023-01-03T21:28:28.171Z,4.95
2023-01-03T21:31:05.390Z,4.92
2023-01-03T21:33:35.180Z,4.90
2023-01-03T21:36:06.083Z,5.00
2023-01-03T21:38:36.905Z,4.98
2023-01-03T21:41:07.547Z,5.04
2023-01-03T21:43:42.188Z,5.12
2023-01-03T21:46:16.245Z,5.11
2023-01-03T21:48:46.847Z,5.24
2023-01-03T21:51:33.084Z,5.20
2023-01-03T21:53:53.885Z,5.20
2023-01-03T21:56:25.952Z,5.26
2023-01-03T21:58:56.410Z,5.33
2023-01-03T22:01:27.189Z,5.36
2023-01-03T22:04:19.029Z,5.31
2023-01-03T22:06:49.491Z,5.33
2023-01-03T22:09:39.040Z,5.28
2023-01-03T22:12:15.621Z,5.40
2023-01-03T22:14:49.046Z,5.57
2023-01-03T22:17:22.531Z,5.41
2023-01-03T22:19:54.565Z,5.50
2023-01-03T22:22:25.289Z,5.54
2023-01-03T22:24:59.041Z,5.52
2023-01-03T22:27:32.894Z,5.50
2023-01-03T22:30:07.236Z,5.68
2023-01-03T22:32:41.236Z,5.56
2023-01-03T22:35:13.788Z,5.54
2023-01-03T22:37:46.464Z,5.44
2023-01-03T22:40:19.139Z,5.29
2023-01-03T22:42:49.690Z,5.34
2023-01-03T22:45:22.629Z,5.30
2023-01-03T22:47:53.086Z,5.20
2023-01-03T22:50:23.540Z,5.22
2023-01-03T22:52:55.005Z,5.15
2023-01-03T22:55:31.770Z,5.00
2023-01-03T22:57:58.208Z,5.05
2023-01-03T23:00:30.284Z,5.03
2023-01-03T23:03:03.395Z,4.94
2023-01-03T23:05:35.960Z,4.86
2023-01-03T23:08:06.817Z,4.86
2023-01-03T23:10:38.427Z,4.84
2023-01-03T23:13:12.586Z,4.86
2023-01-03T23:15:43.184Z,4.76
2023-01-03T23:18:14.692Z,4.76
2023-01-03T23:20:47.443Z,4.77
2023-01-03T23:23:18.045Z,4.82
2023-01-03T23:25:50.873Z,4.89
2023-01-03T23:28:21.391Z,4.78
2023-01-03T23:30:51.967Z,4.73
2023-01-03T23:33:24.267Z,4.68
2023-01-03T23:35:54.716Z,4.70
2023-01-03T23:38:27.398Z,4.62
2023-01-03T23:40:59.698Z,4.56
2023-01-03T23:43:30.424Z,4.50
2023-01-03T23:46:02.325Z,4.47
2023-01-03T23:48:33.502Z,4.51
2023-01-03T23:51:09.194Z,4.39
2023-01-03T23:53:42.199Z,4.42
2023-01-03T23:56:20.128Z,4.42
2023-01-03T23:58:53.018Z,4.42
